createdAt,value
2022-09-02T00:14:06.849Z,0.98
2022-09-02T00:16:35.634Z,0.75
2022-09-02T00:19:05.502Z,0.70
2022-09-02T00:21:35.969Z,0.70
2022-09-02T00:24:06.262Z,0.77
2022-09-02T00:26:38.667Z,0.73
2022-09-02T00:29:07.300Z,0.90
2022-09-02T00:31:38.881Z,0.75
2022-09-02T00:34:06.726Z,0.98
2022-09-02T00:36:34.303Z,0.70
2022-09-02T00:39:05.300Z,1.00
2022-09-02T00:41:35.036Z,0.80
2022-09-02T00:44:11.492Z,0.77
2022-09-02T00:46:42.015Z,0.70
2022-09-02T00:49:48.272Z,1.00
2022-09-02T00:52:33.717Z,0.90
2022-09-02T00:55:18.197Z,0.80
2022-09-02T00:57:57.155Z,0.80
2022-09-02T01:00:38.993Z,1.00
2022-09-02T01:03:17.192Z,0.80
2022-09-02T01:06:03.856Z,0.80
2022-09-02T01:08:38.239Z,0.93
2022-09-02T01:11:08.595Z,0.60
2022-09-02T01:13:40.162Z,0.68
2022-09-02T01:16:21.486Z,0.70
2022-09-02T01:18:52.743Z,1.00
2022-09-02T01:21:25.186Z,0.80
2022-09-02T01:23:55.123Z,1.00
2022-09-02T01:26:24.734Z,0.80
2022-09-02T01:28:53.259Z,0.80
2022-09-02T01:31:25.687Z,1.00
2022-09-02T01:33:53.476Z,0.85
2022-09-02T01:36:22.725Z,0.80
2022-09-02T01:38:50.405Z,0.90
2022-09-02T01:41:20.111Z,0.85
2022-09-02T01:43:47.883Z,0.75
2022-09-02T01:46:15.910Z,1.02
2022-09-02T01:48:46.068Z,0.80
2022-09-02T01:51:19.588Z,0.77
2022-09-02T01:53:49.932Z,0.60
2022-09-02T01:56:17.669Z,0.90
2022-09-02T01:58:45.187Z,0.88
2022-09-02T02:01:16.412Z,1.00
2022-09-02T02:03:48.751Z,0.80
2022-09-02T02:06:18.922Z,0.60
2022-09-02T02:08:49.563Z,0.63
2022-09-02T02:11:31.846Z,0.80
2022-09-02T02:14:04.398Z,0.93
2022-09-02T02:16:33.922Z,0.70
2022-09-02T02:19:40.224Z,0.70
2022-09-02T02:22:08.750Z,1.10
2022-09-02T02:24:36.785Z,0.88
2022-09-02T02:27:05.921Z,0.77
2022-09-02T02:29:37.502Z,0.85
2022-09-02T02:32:07.712Z,0.90
2022-09-02T02:34:43.236Z,0.90
2022-09-02T02:37:12.693Z,1.00
2022-09-02T02:39:41.871Z,0.95
2022-09-02T02:42:13.773Z,0.80
2022-09-02T02:44:44.149Z,0.80
2022-09-02T02:47:16.485Z,0.85
2022-09-02T02:49:46.487Z,1.00
2022-09-02T02:52:14.503Z,0.77
2022-09-02T02:54:47.788Z,1.35
2022-09-02T02:57:17.229Z,0.90
2022-09-02T02:59:44.719Z,0.70
2022-09-02T03:02:13.211Z,1.00
2022-09-02T03:04:41.310Z,0.93
2022-09-02T03:07:09.807Z,1.27
2022-09-02T03:09:39.259Z,0.80
2022-09-02T03:12:07.534Z,0.80
2022-09-02T03:14:36.334Z,0.70
2022-09-02T03:17:04.910Z,1.05
2022-09-02T03:19:33.397Z,0.93
2022-09-02T03:22:05.266Z,0.98
2022-09-02T03:24:34.098Z,1.00
2022-09-02T03:27:04.738Z,1.00
2022-09-02T03:29:34.318Z,1.00
2022-09-02T03:32:04.628Z,0.82
2022-09-02T03:35:03.740Z,0.95
2022-09-02T03:37:36.043Z,0.80
2022-09-02T03:40:06.764Z,0.77
2022-09-02T03:42:35.898Z,0.82
2022-09-02T03:45:09.962Z,0.95
2022-09-02T03:47:40.684Z,0.90
2022-09-02T03:50:10.811Z,0.90
2022-09-02T03:52:39.573Z,0.80
2022-09-02T03:55:08.228Z,0.80
2022-09-02T03:57:37.140Z,0.90
2022-09-02T04:00:09.487Z,0.85
2022-09-02T04:02:42.209Z,0.90
2022-09-02T04:05:15.781Z,0.70
2022-09-02T04:07:46.958Z,1.20
2022-09-02T04:10:15.686Z,1.00
2022-09-02T04:13:29.589Z,1.17
2022-09-02T04:16:13.945Z,1.05
2022-09-02T04:18:51.271Z,0.70
2022-09-02T04:21:19.981Z,0.90
2022-09-02T04:23:51.082Z,0.90
2022-09-02T04:26:22.976Z,1.05
2022-09-02T04:28:56.659Z,1.08
2022-09-02T04:31:34.345Z,1.02
2022-09-02T04:34:12.445Z,1.25
2022-09-02T04:36:42.890Z,0.80
2022-09-02T04:39:14.111Z,1.05
2022-09-02T04:41:42.659Z,0.90
2022-09-02T04:44:13.024Z,1.00
2022-09-02T04:46:43.824Z,0.90
2022-09-02T04:49:17.417Z,0.90
2022-09-02T04:51:47.421Z,1.20
2022-09-02T04:54:15.534Z,1.02
2022-09-02T04:56:49.337Z,0.93
2022-09-02T04:59:20.718Z,1.00
2022-09-02T05:02:03.615Z,1.00
2022-09-02T05:04:36.920Z,0.85
2022-09-02T05:07:13.362Z,0.82
2022-09-02T05:09:47.262Z,1.85
2022-09-02T05:12:18.628Z,1.13
2022-09-02T05:14:59.636Z,1.10
2022-09-02T05:17:32.760Z,1.17
2022-09-02T05:20:03.008Z,1.15
2022-09-02T05:22:38.770Z,1.00
2022-09-02T05:25:09.824Z,1.13
2022-09-02T05:27:46.379Z,1.50
2022-09-02T05:30:14.657Z,1.27
2022-09-02T05:32:42.471Z,1.17
2022-09-02T05:35:12.389Z,1.10
2022-09-02T05:37:41.214Z,1.03
2022-09-02T05:40:17.334Z,1.00
2022-09-02T05:42:52.273Z,1.33
2022-09-02T05:45:20.350Z,1.10
2022-09-02T05:47:48.283Z,1.08
2022-09-02T05:50:17.055Z,1.13
2022-09-02T05:52:46.613Z,1.33
2022-09-02T05:55:19.983Z,1.35
2022-09-02T05:57:47.645Z,1.48
2022-09-02T06:00:23.455Z,1.23
2022-09-02T06:03:16.861Z,1.08
2022-09-02T06:06:01.687Z,1.20
2022-09-02T06:08:35.823Z,1.00
2022-09-02T06:11:05.229Z,1.45
2022-09-02T06:17:08.848Z,1.00
2022-09-02T06:19:48.438Z,0.90
2022-09-02T06:22:26.159Z,1.60
2022-09-02T06:24:55.683Z,1.20
2022-09-02T06:27:29.658Z,1.05
2022-09-02T06:29:56.996Z,1.33
2022-09-02T06:32:28.308Z,1.27
2022-09-02T06:35:03.118Z,1.17
2022-09-02T06:37:36.832Z,0.93
2022-09-02T06:40:06.024Z,1.35
2022-09-02T06:42:35.470Z,1.10
2022-09-02T06:45:11.290Z,1.10
2022-09-02T06:47:42.205Z,0.90
2022-09-02T06:50:10.444Z,1.17
2022-09-02T06:52:40.258Z,1.17
2022-09-02T06:55:10.640Z,1.20
2022-09-02T06:57:39.830Z,1.73
2022-09-02T07:00:12.224Z,1.45
2022-09-02T07:02:41.144Z,1.17
2022-09-02T07:05:10.821Z,1.33
2022-09-02T07:07:42.557Z,1.20
2022-09-02T07:10:15.306Z,1.67
2022-09-02T07:12:48.798Z,1.30
2022-09-02T07:15:17.832Z,1.85
2022-09-02T07:17:46.932Z,1.20
2022-09-02T07:20:22.863Z,1.27
2022-09-02T07:22:57.182Z,1.20
2022-09-02T07:25:27.633Z,1.45
2022-09-02T07:27:56.844Z,1.02
2022-09-02T07:30:25.792Z,1.48
2022-09-02T07:33:03.137Z,1.50
2022-09-02T07:35:32.516Z,1.30
2022-09-02T07:38:00.117Z,1.15
2022-09-02T07:40:28.765Z,1.40
2022-09-02T07:42:58.150Z,1.33
2022-09-02T07:45:27.190Z,2.00
2022-09-02T07:47:55.686Z,1.20
2022-09-02T07:50:27.334Z,1.58
2022-09-02T07:53:01.470Z,1.75
2022-09-02T07:55:35.419Z,1.90
2022-09-02T07:58:06.831Z,1.60
2022-09-02T08:03:11.779Z,1.42
2022-09-02T08:05:47.362Z,1.50
2022-09-02T08:08:17.152Z,1.38
2022-09-02T08:10:45.836Z,1.85
2022-09-02T08:13:14.952Z,1.70
2022-09-02T08:15:42.954Z,1.48
2022-09-02T08:18:22.629Z,1.60
2022-09-02T08:20:50.783Z,1.90
2022-09-02T08:23:35.554Z,1.58
2022-09-02T08:26:06.008Z,1.48
2022-09-02T08:28:33.759Z,1.88
2022-09-02T08:31:11.284Z,1.42
2022-09-02T08:33:38.654Z,1.60
2022-09-02T08:36:09.225Z,1.85
2022-09-02T08:38:37.176Z,1.80
2022-09-02T08:41:24.462Z,1.50
2022-09-02T08:43:58.760Z,1.38
2022-09-02T08:46:28.913Z,1.40
2022-09-02T08:49:01.559Z,1.60
2022-09-02T08:52:00.915Z,1.40
2022-09-02T08:54:48.773Z,2.08
2022-09-02T08:57:16.422Z,1.50
2022-09-02T08:59:46.330Z,1.42
2022-09-02T09:02:21.801Z,2.08
2022-09-02T09:05:11.135Z,1.73
2022-09-02T09:07:49.363Z,1.75
2022-09-02T09:10:47.913Z,1.30
2022-09-02T09:13:21.174Z,1.60
2022-09-02T09:16:40.375Z,2.03
2022-09-02T09:19:26.497Z,1.55
2022-09-02T09:21:55.430Z,1.80
2022-09-02T09:24:32.715Z,2.33
2022-09-02T09:27:04.760Z,2.00
2022-09-02T09:29:36.574Z,1.70
2022-09-02T09:32:47.270Z,2.03
2022-09-02T09:35:19.419Z,1.67
2022-09-02T09:37:55.637Z,1.85
2022-09-02T09:40:27.882Z,1.98
2022-09-02T09:45:34.447Z,1.80
2022-09-02T09:48:32.167Z,1.83
2022-09-02T09:50:59.569Z,1.60
2022-09-02T09:53:36.901Z,1.67
2022-09-02T09:56:28.641Z,1.50
2022-09-02T09:59:04.439Z,1.73
2022-09-02T10:01:36.144Z,1.75
2022-09-02T10:04:39.247Z,1.67
2022-09-02T10:07:04.561Z,2.00
2022-09-02T10:09:35.981Z,1.70
2022-09-02T10:12:13.150Z,1.80
2022-09-02T10:14:47.467Z,2.03
2022-09-02T10:17:20.913Z,1.60
2022-09-02T10:19:57.380Z,1.60
2022-09-02T10:23:12.460Z,1.80
2022-09-02T10:26:02.101Z,2.10
2022-09-02T10:29:04.225Z,1.77
2022-09-02T10:31:59.282Z,1.58
2022-09-02T10:34:47.522Z,2.00
2022-09-02T10:37:27.468Z,1.80
2022-09-02T10:40:31.314Z,1.85
2022-09-02T10:43:12.120Z,1.70
2022-09-02T10:45:48.554Z,1.70
2022-09-02T10:48:23.377Z,1.98
2022-09-02T10:51:13.086Z,1.80
2022-09-02T10:53:47.352Z,2.00
2022-09-02T10:56:23.872Z,2.42
2022-09-02T10:58:53.038Z,1.60
2022-09-02T11:01:27.229Z,2.10
2022-09-02T11:04:08.671Z,1.60
2022-09-02T11:07:01.891Z,1.60
2022-09-02T11:09:41.660Z,1.63
2022-09-02T11:12:23.214Z,1.57
2022-09-02T11:15:14.969Z,1.85
2022-09-02T11:18:01.812Z,1.92
2022-09-02T11:20:42.098Z,2.00
2022-09-02T11:25:54.642Z,1.60
2022-09-02T11:28:32.524Z,1.60
2022-09-02T11:31:27.845Z,1.40
2022-09-02T11:36:37.991Z,1.88
2022-09-02T11:39:12.175Z,1.45
2022-09-02T11:42:03.894Z,1.70
2022-09-02T11:44:52.139Z,1.20
2022-09-02T11:47:46.107Z,1.27
2022-09-02T11:50:39.209Z,1.20
2022-09-02T11:53:48.238Z,1.60
2022-09-02T11:56:28.493Z,1.50
2022-09-02T11:58:56.434Z,1.38
2022-09-02T12:01:25.784Z,1.42
2022-09-02T12:07:10.057Z,1.50
2022-09-02T12:09:55.417Z,1.50
2022-09-02T12:12:59.394Z,1.95
2022-09-02T12:15:28.894Z,1.50
2022-09-02T12:17:58.063Z,1.70
2022-09-02T12:21:05.525Z,2.00
2022-09-02T12:23:55.038Z,1.83
2022-09-02T12:26:25.161Z,1.70
2022-09-02T12:29:20.725Z,1.27
2022-09-02T12:31:57.784Z,1.35
2022-09-02T12:34:25.336Z,1.20
2022-09-02T12:36:55.033Z,1.75
2022-09-02T12:39:25.424Z,1.40
2022-09-02T12:42:06.657Z,1.20
2022-09-02T12:45:07.545Z,1.20
2022-09-02T12:47:51.707Z,1.10
2022-09-02T12:50:36.420Z,1.00
2022-09-02T12:53:43.783Z,1.10
2022-09-02T12:56:23.863Z,1.42
2022-09-02T12:58:54.777Z,0.95
2022-09-02T13:02:20.000Z,1.27
2022-09-02T13:05:16.283Z,1.40
2022-09-02T13:08:03.486Z,1.25
2022-09-02T13:10:36.706Z,1.20
2022-09-02T13:13:27.038Z,0.95
2022-09-02T13:16:18.620Z,1.20
2022-09-02T13:19:17.061Z,1.08
2022-09-02T13:21:49.933Z,1.00
2022-09-02T13:24:40.799Z,1.20
2022-09-02T13:27:24.871Z,1.08
2022-09-02T13:30:06.862Z,1.08
2022-09-02T13:32:36.053Z,1.35
2022-09-02T13:35:07.892Z,1.00
2022-09-02T13:37:41.950Z,0.90
2022-09-02T13:40:19.389Z,1.13
2022-09-02T13:43:03.538Z,1.25
2022-09-02T13:45:36.618Z,1.67
2022-09-02T13:48:16.034Z,1.10
2022-09-02T13:50:53.239Z,1.10
2022-09-02T13:53:59.060Z,1.30
2022-09-02T13:56:33.405Z,1.00
2022-09-02T13:59:01.534Z,1.13
2022-09-02T14:01:31.918Z,1.00
2022-09-02T14:06:36.982Z,1.00
2022-09-02T14:09:13.554Z,1.30
2022-09-02T14:11:49.848Z,1.10
2022-09-02T14:15:07.234Z,1.73
2022-09-02T14:17:37.271Z,1.13
2022-09-02T14:22:41.684Z,1.35
2022-09-02T14:25:14.829Z,1.27
2022-09-02T14:27:54.292Z,1.13
2022-09-02T14:30:43.370Z,1.40
2022-09-02T14:33:28.174Z,1.20
2022-09-02T14:36:13.667Z,1.25
2022-09-02T14:38:47.511Z,1.30
2022-09-02T14:41:20.670Z,1.50
2022-09-02T14:44:12.847Z,1.35
2022-09-02T14:46:51.351Z,1.40
2022-09-02T14:49:25.413Z,1.17
2022-09-02T14:52:04.845Z,1.55
2022-09-02T14:54:50.185Z,1.70
2022-09-02T14:57:32.693Z,1.42
2022-09-02T15:00:11.310Z,1.52
2022-09-02T15:02:43.414Z,1.23
2022-09-02T15:05:17.051Z,1.50
2022-09-02T15:07:46.368Z,1.60
2022-09-02T15:10:14.788Z,1.17
2022-09-02T15:12:53.589Z,1.42
2022-09-02T15:15:21.603Z,1.40
2022-09-02T15:17:51.317Z,1.30
2022-09-02T15:20:21.988Z,1.30
2022-09-02T15:22:50.373Z,1.50
2022-09-02T15:25:22.287Z,1.40
2022-09-02T15:27:53.464Z,1.25
2022-09-02T15:30:20.977Z,1.75
2022-09-02T15:33:16.961Z,1.33
2022-09-02T15:38:55.062Z,1.50
2022-09-02T15:41:27.457Z,1.30
2022-09-02T15:43:55.863Z,1.77
2022-09-02T15:46:32.255Z,1.38
2022-09-02T15:49:08.054Z,1.38
2022-09-02T15:51:39.394Z,1.30
2022-09-02T15:54:16.458Z,1.35
2022-09-02T15:56:46.390Z,1.20
2022-09-02T15:59:19.400Z,1.25
2022-09-02T16:02:03.612Z,1.23
2022-09-02T16:04:34.368Z,1.30
2022-09-02T16:07:07.454Z,1.05
2022-09-02T16:09:36.316Z,1.60
2022-09-02T16:12:06.534Z,1.10
2022-09-02T16:14:34.602Z,1.25
2022-09-02T16:17:03.861Z,1.33
2022-09-02T16:19:34.454Z,1.42
2022-09-02T16:22:03.183Z,1.52
2022-09-02T16:24:33.608Z,1.10
2022-09-02T16:27:01.751Z,1.20
2022-09-02T16:29:31.345Z,1.30
2022-09-02T16:32:23.677Z,1.45
2022-09-02T16:34:49.383Z,1.15
2022-09-02T16:37:19.189Z,1.25
2022-09-02T16:39:46.703Z,1.10
2022-09-02T16:42:15.334Z,1.13
2022-09-02T16:44:42.848Z,1.65
2022-09-02T16:47:12.409Z,1.30
2022-09-02T16:49:41.267Z,1.15
2022-09-02T16:52:16.233Z,1.40
2022-09-02T16:54:44.541Z,1.25
2022-09-02T16:57:17.015Z,1.35
2022-09-02T16:59:46.729Z,1.40
2022-09-02T17:02:14.248Z,1.38
2022-09-02T17:05:17.629Z,1.20
2022-09-02T17:07:46.372Z,1.00
2022-09-02T17:10:15.026Z,1.30
2022-09-02T17:12:44.791Z,1.27
2022-09-02T17:15:12.940Z,1.17
2022-09-02T17:17:52.638Z,1.20
2022-09-02T17:22:49.680Z,1.05
2022-09-02T17:25:20.622Z,1.20
2022-09-02T17:27:48.946Z,1.02
2022-09-02T17:30:17.226Z,1.20
2022-09-02T17:32:45.203Z,1.63
2022-09-02T17:35:14.845Z,1.20
2022-09-02T17:37:42.278Z,1.45
2022-09-02T17:40:33.767Z,1.20
2022-09-02T17:43:02.342Z,0.95
2022-09-02T17:45:29.623Z,1.30
2022-09-02T17:48:08.948Z,1.35
2022-09-02T17:50:46.416Z,1.30
2022-09-02T17:53:14.229Z,1.00
2022-09-02T17:55:42.258Z,1.17
2022-09-02T17:58:21.233Z,1.30
2022-09-02T18:01:02.575Z,1.38
2022-09-02T18:03:54.768Z,1.40
2022-09-02T18:06:33.436Z,1.50
2022-09-02T18:09:04.679Z,1.30
2022-09-02T18:11:34.076Z,1.20
2022-09-02T18:14:41.323Z,1.73
2022-09-02T18:17:56.385Z,1.20
2022-09-02T18:20:36.103Z,1.33
2022-09-02T18:23:22.545Z,1.07
2022-09-02T18:26:20.488Z,1.17
2022-09-02T18:29:16.853Z,1.50
2022-09-02T18:32:06.261Z,1.40
2022-09-02T18:34:37.174Z,1.17
2022-09-02T18:37:14.026Z,1.15
2022-09-02T18:40:05.876Z,1.25
2022-09-02T18:43:14.006Z,1.20
2022-09-02T18:46:03.288Z,1.20
2022-09-02T18:48:37.023Z,1.42
2022-09-02T18:51:35.045Z,1.50
2022-09-02T18:54:42.227Z,1.60
2022-09-02T18:57:10.567Z,1.20
2022-09-02T19:00:08.209Z,1.20
2022-09-02T19:03:16.586Z,1.40
2022-09-02T19:05:48.205Z,1.42
2022-09-02T19:08:35.401Z,1.40
2022-09-02T19:11:13.522Z,1.27
2022-09-02T19:14:04.065Z,1.45
2022-09-02T19:19:06.768Z,1.45
2022-09-02T19:21:51.681Z,1.40
2022-09-02T19:24:48.015Z,1.85
2022-09-02T19:27:20.540Z,1.40
2022-09-02T19:30:01.662Z,1.20
2022-09-02T19:32:33.750Z,1.25
2022-09-02T19:35:17.985Z,1.40
2022-09-02T19:37:51.861Z,1.60
2022-09-02T19:40:26.954Z,1.73
2022-09-02T19:43:07.716Z,1.40
2022-09-02T19:48:12.074Z,1.87
2022-09-02T19:50:43.390Z,1.67
2022-09-02T19:53:16.131Z,1.58
2022-09-02T19:55:44.768Z,1.00
2022-09-02T19:58:12.404Z,1.70
2022-09-02T20:00:45.198Z,1.88
2022-09-02T20:03:13.913Z,1.40
2022-09-02T20:05:43.890Z,1.60
2022-09-02T20:08:21.135Z,1.42
2022-09-02T20:11:04.620Z,1.60
2022-09-02T20:13:41.347Z,1.73
2022-09-02T20:16:22.687Z,1.52
2022-09-02T20:18:55.521Z,1.80
2022-09-02T20:21:31.398Z,1.27
2022-09-02T20:24:11.152Z,1.42
2022-09-02T20:27:10.538Z,1.40
2022-09-02T20:29:55.050Z,1.38
2022-09-02T20:32:47.049Z,1.50
2022-09-02T20:35:39.514Z,1.60
2022-09-02T20:38:44.329Z,1.15
2022-09-02T20:41:34.504Z,1.65
2022-09-02T20:47:12.731Z,1.30
2022-09-02T20:50:08.263Z,1.40
2022-09-02T20:52:56.992Z,1.40
2022-09-02T20:55:46.798Z,1.40
2022-09-02T20:58:55.901Z,1.67
2022-09-02T21:01:29.667Z,1.30
2022-09-02T21:04:32.893Z,1.25
2022-09-02T21:07:14.148Z,1.33
2022-09-02T21:10:04.089Z,1.27
2022-09-02T21:12:47.516Z,1.35
2022-09-02T21:15:31.380Z,1.10
2022-09-02T21:18:24.809Z,1.65
2022-09-02T21:21:32.737Z,1.30
2022-09-02T21:24:18.113Z,1.42
2022-09-02T21:26:53.572Z,1.40
2022-09-02T21:29:38.457Z,1.40
2022-09-02T21:32:49.672Z,1.40
2022-09-02T21:35:25.251Z,1.27
2022-09-02T21:38:03.367Z,1.35
2022-09-02T21:40:45.935Z,1.50
2022-09-02T21:43:13.839Z,1.13
2022-09-02T21:45:43.346Z,1.50
2022-09-02T21:48:48.177Z,1.02
2022-09-02T21:51:37.727Z,1.52
2022-09-02T21:54:15.911Z,1.30
2022-09-02T21:56:58.106Z,1.10
2022-09-02T21:59:54.464Z,1.30
2022-09-02T22:02:37.186Z,1.42
2022-09-02T22:05:10.266Z,1.52
2022-09-02T22:08:03.903Z,1.50
2022-09-02T22:10:53.322Z,1.33
2022-09-02T22:13:22.715Z,1.20
2022-09-02T22:16:03.514Z,1.33
2022-09-02T22:21:50.261Z,1.15
2022-09-02T22:24:19.867Z,1.27
2022-09-02T22:27:03.725Z,1.47
2022-09-02T22:29:37.716Z,1.50
2022-09-02T22:32:09.803Z,1.23
2022-09-02T22:35:09.529Z,1.42
2022-09-02T22:37:56.258Z,1.45
2022-09-02T22:40:25.936Z,1.30
2022-09-02T22:42:58.640Z,1.30
2022-09-02T22:45:53.132Z,2.00
2022-09-02T22:48:54.173Z,1.42
2022-09-02T22:51:51.251Z,1.30
2022-09-02T22:54:18.876Z,1.70
2022-09-02T22:57:08.602Z,1.45
2022-09-02T23:00:03.579Z,1.20
2022-09-02T23:02:37.093Z,1.60
2022-09-02T23:05:40.617Z,1.40
2022-09-02T23:08:17.804Z,1.35
2022-09-02T23:10:54.842Z,1.55
2022-09-02T23:14:09.472Z,1.70
2022-09-02T23:17:00.028Z,1.50
2022-09-02T23:19:50.772Z,1.48
2022-09-02T23:22:35.299Z,1.52
2022-09-02T23:25:41.418Z,1.40
2022-09-02T23:28:25.752Z,1.50
2022-09-02T23:31:04.512Z,1.40
2022-09-02T23:33:51.039Z,1.30
2022-09-02T23:36:36.163Z,1.50
2022-09-02T23:39:25.869Z,1.30
2022-09-02T23:42:02.682Z,1.48
2022-09-02T23:44:33.503Z,1.50
2022-09-02T23:47:39.084Z,1.60
2022-09-02T23:50:34.600Z,1.33
2022-09-02T23:53:16.568Z,1.60
2022-09-02T23:56:20.948Z,1.48
2022-09-02T23:59:12.463Z,1.40
